Aviation Digital Data Service (ADDS)

Output produced by METARs form (2035 UTC 17 June 2019)
found at http://www.aviationweather.gov/metar/data/
 
METAR text: NZAA 172000Z AUTO 02004KT 340V060 9999 FEW060/// 08/07 Q1020 NOSIG
Conditions at: NZAA (AUCKLAND INTL AR, NZ) observed 2000 UTC 17 June 2019
Temperature: 8.0°C (46°F)
Dewpoint: 7.0°C (45°F) [RH = 93%]
Pressure (altimeter): 30.12 inches Hg (1020.0 mb)
Winds: from the NNE (20 degrees) at 5 MPH (4 knots; 2.1 m/s)
Visibility: 6 or more miles (10+ km)
Ceiling: at least 12,000 feet AGL
Clouds: few clouds at 6000 feet AGL
Weather: no significant weather observed at this time

METAR text: NZAA 171930Z AUTO 31002KT 9999 OVC060/// 09/07 Q1019 NOSIG
Conditions at: NZAA (AUCKLAND INTL AR, NZ) observed 1930 UTC 17 June 2019
Temperature: 9.0°C (48°F)
Dewpoint: 7.0°C (45°F) [RH = 87%]
Pressure (altimeter): 30.09 inches Hg (1019.0 mb)
Winds: from the NW (310 degrees) at 2 MPH (2 knots; 1.0 m/s)
Visibility: 6 or more miles (10+ km)
Ceiling: 6000 feet AGL
Clouds: overcast cloud deck at 6000 feet AGL
Weather: no significant weather observed at this time

METAR text: NZAA 171900Z AUTO 01002KT 9999 BKN060/// 09/07 Q1019 NOSIG
Conditions at: NZAA (AUCKLAND INTL AR, NZ) observed 1900 UTC 17 June 2019
Temperature: 9.0°C (48°F)
Dewpoint: 7.0°C (45°F) [RH = 87%]
Pressure (altimeter): 30.09 inches Hg (1019.0 mb)
Winds: from the N (10 degrees) at 2 MPH (2 knots; 1.0 m/s)
Visibility: 6 or more miles (10+ km)
Ceiling: 6000 feet AGL
Clouds: broken clouds at 6000 feet AGL
Weather: no significant weather observed at this time

METAR text: NZAA 171830Z AUTO 03003KT 9999 SCT060/// 08/07 Q1019 NOSIG
Conditions at: NZAA (AUCKLAND INTL AR, NZ) observed 1830 UTC 17 June 2019
Temperature: 8.0°C (46°F)
Dewpoint: 7.0°C (45°F) [RH = 93%]
Pressure (altimeter): 30.09 inches Hg (1019.0 mb)
Winds: from the NNE (30 degrees) at 3 MPH (3 knots; 1.5 m/s)
Visibility: 6 or more miles (10+ km)
Ceiling: at least 12,000 feet AGL
Clouds: scattered clouds at 6000 feet AGL
Weather: no significant weather observed at this time

METAR text: NZAA 171800Z AUTO 16003KT 9999 FEW060/// 09/07 Q1018 NOSIG
Conditions at: NZAA (AUCKLAND INTL AR, NZ) observed 1800 UTC 17 June 2019
Temperature: 9.0°C (48°F)
Dewpoint: 7.0°C (45°F) [RH = 87%]
Pressure (altimeter): 30.06 inches Hg (1018.0 mb)
Winds: from the SSE (160 degrees) at 3 MPH (3 knots; 1.5 m/s)
Visibility: 6 or more miles (10+ km)
Ceiling: at least 12,000 feet AGL
Clouds: few clouds at 6000 feet AGL
Weather: no significant weather observed at this time

METAR text: NZAA 171730Z AUTO 16003KT 9999 NCD 10/08 Q1018 TEMPO 6000 SHRA
Conditions at: NZAA (AUCKLAND INTL AR, NZ) observed 1730 UTC 17 June 2019
Temperature: 10.0°C (50°F)
Dewpoint: 8.0°C (46°F) [RH = 87%]
Pressure (altimeter): 30.06 inches Hg (1018.0 mb)
Winds: from the SSE (160 degrees) at 3 MPH (3 knots; 1.5 m/s)
Visibility: 6 or more miles (10+ km)
Ceiling: at least 12,000 feet AGL
Clouds: sky clear below 12,000 feet AGL
Weather: no significant weather observed at this time

METAR text: NZAA 171700Z AUTO 17006KT 9999 FEW050/// 10/08 Q1018 TEMPO 6000 SHRA
Conditions at: NZAA (AUCKLAND INTL AR, NZ) observed 1700 UTC 17 June 2019
Temperature: 10.0°C (50°F)
Dewpoint: 8.0°C (46°F) [RH = 87%]
Pressure (altimeter): 30.06 inches Hg (1018.0 mb)
Winds: from the S (170 degrees) at 7 MPH (6 knots; 3.1 m/s)
Visibility: 6 or more miles (10+ km)
Ceiling: at least 12,000 feet AGL
Clouds: few clouds at 5000 feet AGL
Weather: no significant weather observed at this time

METAR text: NZAA 171630Z AUTO 25007KT 9999 FEW036/// 10/08 Q1018 TEMPO 6000 SHRA
Conditions at: NZAA (AUCKLAND INTL AR, NZ) observed 1630 UTC 17 June 2019
Temperature: 10.0°C (50°F)
Dewpoint: 8.0°C (46°F) [RH = 87%]
Pressure (altimeter): 30.06 inches Hg (1018.0 mb)
Winds: from the WSW (250 degrees) at 8 MPH (7 knots; 3.6 m/s)
Visibility: 6 or more miles (10+ km)
Ceiling: at least 12,000 feet AGL
Clouds: few clouds at 3600 feet AGL
Weather: no significant weather observed at this time

METAR text: NZAA 171600Z AUTO 25006KT 9999 NCD 10/08 Q1018 TEMPO 6000 SHRA
Conditions at: NZAA (AUCKLAND INTL AR, NZ) observed 1600 UTC 17 June 2019
Temperature: 10.0°C (50°F)
Dewpoint: 8.0°C (46°F) [RH = 87%]
Pressure (altimeter): 30.06 inches Hg (1018.0 mb)
Winds: from the WSW (250 degrees) at 7 MPH (6 knots; 3.1 m/s)
Visibility: 6 or more miles (10+ km)
Ceiling: at least 12,000 feet AGL
Clouds: sky clear below 12,000 feet AGL
Weather: no significant weather observed at this time

METAR text: NZAA 171530Z AUTO 23009KT 9999 NCD 11/08 Q1018 TEMPO 6000 SHRA
Conditions at: NZAA (AUCKLAND INTL AR, NZ) observed 1530 UTC 17 June 2019
Temperature: 11.0°C (52°F)
Dewpoint: 8.0°C (46°F) [RH = 82%]
Pressure (altimeter): 30.06 inches Hg (1018.0 mb)
Winds: from the SW (230 degrees) at 10 MPH (9 knots; 4.6 m/s)
Visibility: 6 or more miles (10+ km)
Ceiling: at least 12,000 feet AGL
Clouds: sky clear below 12,000 feet AGL
Weather: no significant weather observed at this time

METAR text: NZAA 171500Z AUTO 22006KT 9999 NCD 11/09 Q1018 TEMPO 6000 SHRA
Conditions at: NZAA (AUCKLAND INTL AR, NZ) observed 1500 UTC 17 June 2019
Temperature: 11.0°C (52°F)
Dewpoint: 9.0°C (48°F) [RH = 87%]
Pressure (altimeter): 30.06 inches Hg (1018.0 mb)
Winds: from the SW (220 degrees) at 7 MPH (6 knots; 3.1 m/s)
Visibility: 6 or more miles (10+ km)
Ceiling: at least 12,000 feet AGL
Clouds: sky clear below 12,000 feet AGL
Weather: no significant weather observed at this time

METAR text: NZAA 171430Z AUTO 24010KT 9999 -RA SCT034/// BKN060/// BKN075/// 11/09 Q1018 TEMPO 6000 SHRA
Conditions at: NZAA (AUCKLAND INTL AR, NZ) observed 1430 UTC 17 June 2019
Temperature: 11.0°C (52°F)
Dewpoint: 9.0°C (48°F) [RH = 87%]
Pressure (altimeter): 30.06 inches Hg (1018.0 mb)
Winds: from the WSW (240 degrees) at 12 MPH (10 knots; 5.1 m/s)
Visibility: 6 or more miles (10+ km)
Ceiling: 6000 feet AGL
Clouds: scattered clouds at 3400 feet AGL
broken clouds at 6000 feet AGL
broken clouds at 7500 feet AGL
Weather: -RA  (light rain)

METAR text: NZAA 171400Z AUTO 22009KT 9999 FEW070/// 12/08 Q1018 TEMPO 6000 SHRA
Conditions at: NZAA (AUCKLAND INTL AR, NZ) observed 1400 UTC 17 June 2019
Temperature: 12.0°C (54°F)
Dewpoint: 8.0°C (46°F) [RH = 76%]
Pressure (altimeter): 30.06 inches Hg (1018.0 mb)
Winds: from the SW (220 degrees) at 10 MPH (9 knots; 4.6 m/s)
Visibility: 6 or more miles (10+ km)
Ceiling: at least 12,000 feet AGL
Clouds: few clouds at 7000 feet AGL
Weather: no significant weather observed at this time

METAR text: NZAA 171330Z AUTO 21011KT 9999 FEW060/// SCT070/// 12/08 Q1018 TEMPO 6000 SHRA
Conditions at: NZAA (AUCKLAND INTL AR, NZ) observed 1330 UTC 17 June 2019
Temperature: 12.0°C (54°F)
Dewpoint: 8.0°C (46°F) [RH = 76%]
Pressure (altimeter): 30.06 inches Hg (1018.0 mb)
Winds: from the SSW (210 degrees) at 13 MPH (11 knots; 5.7 m/s)
Visibility: 6 or more miles (10+ km)
Ceiling: at least 12,000 feet AGL
Clouds: few clouds at 6000 feet AGL
scattered clouds at 7000 feet AGL
Weather: no significant weather observed at this time

METAR text: NZAA 171300Z AUTO 22012KT 9999 FEW060/// 12/08 Q1018 TEMPO 6000 SHRA
Conditions at: NZAA (AUCKLAND INTL AR, NZ) observed 1300 UTC 17 June 2019
Temperature: 12.0°C (54°F)
Dewpoint: 8.0°C (46°F) [RH = 76%]
Pressure (altimeter): 30.06 inches Hg (1018.0 mb)
Winds: from the SW (220 degrees) at 14 MPH (12 knots; 6.2 m/s)
Visibility: 6 or more miles (10+ km)
Ceiling: at least 12,000 feet AGL
Clouds: few clouds at 6000 feet AGL
Weather: no significant weather observed at this time

METAR text: NZAA 171230Z AUTO 23012KT 9999 FEW050/// BKN060/// 13/08 Q1018 TEMPO 6000 SHRA
Conditions at: NZAA (AUCKLAND INTL AR, NZ) observed 1230 UTC 17 June 2019
Temperature: 13.0°C (55°F)
Dewpoint: 8.0°C (46°F) [RH = 72%]
Pressure (altimeter): 30.06 inches Hg (1018.0 mb)
Winds: from the SW (230 degrees) at 14 MPH (12 knots; 6.2 m/s)
Visibility: 6 or more miles (10+ km)
Ceiling: 6000 feet AGL
Clouds: few clouds at 5000 feet AGL
broken clouds at 6000 feet AGL
Weather: no significant weather observed at this time

METAR text: NZAA 171200Z AUTO 23014KT 9999 SCT042/// BKN070/// 12/09 Q1018 TEMPO 6000 SHRA
Conditions at: NZAA (AUCKLAND INTL AR, NZ) observed 1200 UTC 17 June 2019
Temperature: 12.0°C (54°F)
Dewpoint: 9.0°C (48°F) [RH = 82%]
Pressure (altimeter): 30.06 inches Hg (1018.0 mb)
Winds: from the SW (230 degrees) at 16 MPH (14 knots; 7.2 m/s)
Visibility: 6 or more miles (10+ km)
Ceiling: 7000 feet AGL
Clouds: scattered clouds at 4200 feet AGL
broken clouds at 7000 feet AGL
Weather: no significant weather observed at this time

METAR text: NZAA 171130Z AUTO 25007KT 9999 FEW030/// SCT035/// 11/09 Q1018 TEMPO 6000 SHRA
Conditions at: NZAA (AUCKLAND INTL AR, NZ) observed 1130 UTC 17 June 2019
Temperature: 11.0°C (52°F)
Dewpoint: 9.0°C (48°F) [RH = 87%]
Pressure (altimeter): 30.06 inches Hg (1018.0 mb)
Winds: from the WSW (250 degrees) at 8 MPH (7 knots; 3.6 m/s)
Visibility: 6 or more miles (10+ km)
Ceiling: at least 12,000 feet AGL
Clouds: few clouds at 3000 feet AGL
scattered clouds at 3500 feet AGL
Weather: no significant weather observed at this time

METAR text: NZAA 171100Z AUTO 24009KT 9999 SCT034/// SCT045/// BKN055/// 12/09 Q1017 TEMPO TL1200 6000 SHRA
Conditions at: NZAA (AUCKLAND INTL AR, NZ) observed 1100 UTC 17 June 2019
Temperature: 12.0°C (54°F)
Dewpoint: 9.0°C (48°F) [RH = 82%]
Pressure (altimeter): 30.03 inches Hg (1017.0 mb)
Winds: from the WSW (240 degrees) at 10 MPH (9 knots; 4.6 m/s)
Visibility: 6 or more miles (10+ km)
Ceiling: 5500 feet AGL
Clouds: scattered clouds at 3400 feet AGL
scattered clouds at 4500 feet AGL
broken clouds at 5500 feet AGL
Weather: no significant weather observed at this time

METAR text: NZAA 171030Z AUTO 25008KT 9999 SCT045/// BKN065/// 12/09 Q1017 TEMPO TL1200 6000 SHRA
Conditions at: NZAA (AUCKLAND INTL AR, NZ) observed 1030 UTC 17 June 2019
Temperature: 12.0°C (54°F)
Dewpoint: 9.0°C (48°F) [RH = 82%]
Pressure (altimeter): 30.03 inches Hg (1017.0 mb)
Winds: from the WSW (250 degrees) at 9 MPH (8 knots; 4.1 m/s)
Visibility: 6 or more miles (10+ km)
Ceiling: 6500 feet AGL
Clouds: scattered clouds at 4500 feet AGL
broken clouds at 6500 feet AGL
Weather: no significant weather observed at this time

METAR text: NZAA 171000Z AUTO 26011KT 9999 -RA FEW023/// BKN065/// 12/10 Q1017 TEMPO 6000 SHRA
Conditions at: NZAA (AUCKLAND INTL AR, NZ) observed 1000 UTC 17 June 2019
Temperature: 12.0°C (54°F)
Dewpoint: 10.0°C (50°F) [RH = 88%]
Pressure (altimeter): 30.03 inches Hg (1017.0 mb)
Winds: from the W (260 degrees) at 13 MPH (11 knots; 5.7 m/s)
Visibility: 6 or more miles (10+ km)
Ceiling: 6500 feet AGL
Clouds: few clouds at 2300 feet AGL
broken clouds at 6500 feet AGL
Weather: -RA  (light rain)

METAR text: NZAA 170930Z AUTO 26012KT 9000 -RA SCT047/// BKN060/// 12/10 Q1017 TEMPO 6000 SHRA
Conditions at: NZAA (AUCKLAND INTL AR, NZ) observed 0930 UTC 17 June 2019
Temperature: 12.0°C (54°F)
Dewpoint: 10.0°C (50°F) [RH = 88%]
Pressure (altimeter): 30.03 inches Hg (1017.0 mb)
Winds: from the W (260 degrees) at 14 MPH (12 knots; 6.2 m/s)
Visibility: 6 miles ( 9 km)
Ceiling: 6000 feet AGL
Clouds: scattered clouds at 4700 feet AGL
broken clouds at 6000 feet AGL
Weather: -RA  (light rain)

METAR text: NZAA 170900Z AUTO 25015KT 9999 -RA FEW025/// BKN050/// 12/09 Q1017 TEMPO 6000 SHRA
Conditions at: NZAA (AUCKLAND INTL AR, NZ) observed 0900 UTC 17 June 2019
Temperature: 12.0°C (54°F)
Dewpoint: 9.0°C (48°F) [RH = 82%]
Pressure (altimeter): 30.03 inches Hg (1017.0 mb)
Winds: from the WSW (250 degrees) at 17 MPH (15 knots; 7.7 m/s)
Visibility: 6 or more miles (10+ km)
Ceiling: 5000 feet AGL
Clouds: few clouds at 2500 feet AGL
broken clouds at 5000 feet AGL
Weather: -RA  (light rain)

METAR text: NZAA 170830Z AUTO 25012KT 9999 BKN047/// BKN060/// 12/08 Q1017 TEMPO 6000 SHRA
Conditions at: NZAA (AUCKLAND INTL AR, NZ) observed 0830 UTC 17 June 2019
Temperature: 12.0°C (54°F)
Dewpoint: 8.0°C (46°F) [RH = 76%]
Pressure (altimeter): 30.03 inches Hg (1017.0 mb)
Winds: from the WSW (250 degrees) at 14 MPH (12 knots; 6.2 m/s)
Visibility: 6 or more miles (10+ km)
Ceiling: 4700 feet AGL
Clouds: broken clouds at 4700 feet AGL
broken clouds at 6000 feet AGL
Weather: no significant weather observed at this time

METAR text: NZAA 170800Z AUTO 23017KT 9999 FEW033/// BKN047/// BKN060/// 13/09 Q1017 TEMPO 6000 SHRA
Conditions at: NZAA (AUCKLAND INTL AR, NZ) observed 0800 UTC 17 June 2019
Temperature: 13.0°C (55°F)
Dewpoint: 9.0°C (48°F) [RH = 77%]
Pressure (altimeter): 30.03 inches Hg (1017.0 mb)
Winds: from the SW (230 degrees) at 20 MPH (17 knots; 8.7 m/s)
Visibility: 6 or more miles (10+ km)
Ceiling: 4700 feet AGL
Clouds: few clouds at 3300 feet AGL
broken clouds at 4700 feet AGL
broken clouds at 6000 feet AGL
Weather: no significant weather observed at this time

METAR text: NZAA 170730Z AUTO 25008KT 9999 OVC060/// 12/09 Q1017 TEMPO 6000 SHRA
Conditions at: NZAA (AUCKLAND INTL AR, NZ) observed 0730 UTC 17 June 2019
Temperature: 12.0°C (54°F)
Dewpoint: 9.0°C (48°F) [RH = 82%]
Pressure (altimeter): 30.03 inches Hg (1017.0 mb)
Winds: from the WSW (250 degrees) at 9 MPH (8 knots; 4.1 m/s)
Visibility: 6 or more miles (10+ km)
Ceiling: 6000 feet AGL
Clouds: overcast cloud deck at 6000 feet AGL
Weather: no significant weather observed at this time

METAR text: NZAA 170700Z AUTO 23015KT 9999 FEW025/// BKN060/// 12/09 Q1017 TEMPO 6000 SHRA
Conditions at: NZAA (AUCKLAND INTL AR, NZ) observed 0700 UTC 17 June 2019
Temperature: 12.0°C (54°F)
Dewpoint: 9.0°C (48°F) [RH = 82%]
Pressure (altimeter): 30.03 inches Hg (1017.0 mb)
Winds: from the SW (230 degrees) at 17 MPH (15 knots; 7.7 m/s)
Visibility: 6 or more miles (10+ km)
Ceiling: 6000 feet AGL
Clouds: few clouds at 2500 feet AGL
broken clouds at 6000 feet AGL
Weather: no significant weather observed at this time

METAR text: NZAA 170630Z AUTO 24010KT 9999 SCT036/// BKN065/// 13/09 Q1016 TEMPO 6000 SHRA
Conditions at: NZAA (AUCKLAND INTL AR, NZ) observed 0630 UTC 17 June 2019
Temperature: 13.0°C (55°F)
Dewpoint: 9.0°C (48°F) [RH = 77%]
Pressure (altimeter): 30.00 inches Hg (1016.0 mb)
Winds: from the WSW (240 degrees) at 12 MPH (10 knots; 5.1 m/s)
Visibility: 6 or more miles (10+ km)
Ceiling: 6500 feet AGL
Clouds: scattered clouds at 3600 feet AGL
broken clouds at 6500 feet AGL
Weather: no significant weather observed at this time

METAR text: NZAA 170600Z AUTO 25011KT 9999 FEW045/// BKN060/// 13/08 Q1016 TEMPO 6000 SHRA
Conditions at: NZAA (AUCKLAND INTL AR, NZ) observed 0600 UTC 17 June 2019
Temperature: 13.0°C (55°F)
Dewpoint: 8.0°C (46°F) [RH = 72%]
Pressure (altimeter): 30.00 inches Hg (1016.0 mb)
Winds: from the WSW (250 degrees) at 13 MPH (11 knots; 5.7 m/s)
Visibility: 6 or more miles (10+ km)
Ceiling: 6000 feet AGL
Clouds: few clouds at 4500 feet AGL
broken clouds at 6000 feet AGL
Weather: no significant weather observed at this time

METAR text: NZAA 170530Z AUTO 25009KT 9999 FEW035/// SCT060/// 12/09 Q1016 TEMPO 6000 SHRA
Conditions at: NZAA (AUCKLAND INTL AR, NZ) observed 0530 UTC 17 June 2019
Temperature: 12.0°C (54°F)
Dewpoint: 9.0°C (48°F) [RH = 82%]
Pressure (altimeter): 30.00 inches Hg (1016.0 mb)
Winds: from the WSW (250 degrees) at 10 MPH (9 knots; 4.6 m/s)
Visibility: 6 or more miles (10+ km)
Ceiling: at least 12,000 feet AGL
Clouds: few clouds at 3500 feet AGL
scattered clouds at 6000 feet AGL
Weather: no significant weather observed at this time

METAR text: NZAA 170500Z AUTO 24011KT 9999 FEW033/// SCT060/// 13/09 Q1016 TEMPO 7000 SHRA
Conditions at: NZAA (AUCKLAND INTL AR, NZ) observed 0500 UTC 17 June 2019
Temperature: 13.0°C (55°F)
Dewpoint: 9.0°C (48°F) [RH = 77%]
Pressure (altimeter): 30.00 inches Hg (1016.0 mb)
Winds: from the WSW (240 degrees) at 13 MPH (11 knots; 5.7 m/s)
Visibility: 6 or more miles (10+ km)
Ceiling: at least 12,000 feet AGL
Clouds: few clouds at 3300 feet AGL
scattered clouds at 6000 feet AGL
Weather: no significant weather observed at this time

METAR text: NZAA 170430Z AUTO 26012KT 9999 FEW029/// SCT055/// BKN070/// 13/08 Q1016 TEMPO 7000 SHRA
Conditions at: NZAA (AUCKLAND INTL AR, NZ) observed 0430 UTC 17 June 2019
Temperature: 13.0°C (55°F)
Dewpoint: 8.0°C (46°F) [RH = 72%]
Pressure (altimeter): 30.00 inches Hg (1016.0 mb)
Winds: from the W (260 degrees) at 14 MPH (12 knots; 6.2 m/s)
Visibility: 6 or more miles (10+ km)
Ceiling: 7000 feet AGL
Clouds: few clouds at 2900 feet AGL
scattered clouds at 5500 feet AGL
broken clouds at 7000 feet AGL
Weather: no significant weather observed at this time

METAR text: NZAA 170400Z AUTO 23013KT 9999 NCD 14/09 Q1016 TEMPO 7000 SHRA
Conditions at: NZAA (AUCKLAND INTL AR, NZ) observed 0400 UTC 17 June 2019
Temperature: 14.0°C (57°F)
Dewpoint: 9.0°C (48°F) [RH = 72%]
Pressure (altimeter): 30.00 inches Hg (1016.0 mb)
Winds: from the SW (230 degrees) at 15 MPH (13 knots; 6.7 m/s)
Visibility: 6 or more miles (10+ km)
Ceiling: at least 12,000 feet AGL
Clouds: sky clear below 12,000 feet AGL
Weather: no significant weather observed at this time

METAR text: NZAA 170330Z AUTO 24012KT 9999 FEW036/// SCT050/// BKN070/// 14/09 Q1016 TEMPO 7000 SHRA
Conditions at: NZAA (AUCKLAND INTL AR, NZ) observed 0330 UTC 17 June 2019
Temperature: 14.0°C (57°F)
Dewpoint: 9.0°C (48°F) [RH = 72%]
Pressure (altimeter): 30.00 inches Hg (1016.0 mb)
Winds: from the WSW (240 degrees) at 14 MPH (12 knots; 6.2 m/s)
Visibility: 6 or more miles (10+ km)
Ceiling: 7000 feet AGL
Clouds: few clouds at 3600 feet AGL
scattered clouds at 5000 feet AGL
broken clouds at 7000 feet AGL
Weather: no significant weather observed at this time

METAR text: NZAA 170300Z AUTO 24017KT 9999 FEW038/// SCT055/// 14/09 Q1016 TEMPO 7000 SHRA
Conditions at: NZAA (AUCKLAND INTL AR, NZ) observed 0300 UTC 17 June 2019
Temperature: 14.0°C (57°F)
Dewpoint: 9.0°C (48°F) [RH = 72%]
Pressure (altimeter): 30.00 inches Hg (1016.0 mb)
Winds: from the WSW (240 degrees) at 20 MPH (17 knots; 8.7 m/s)
Visibility: 6 or more miles (10+ km)
Ceiling: at least 12,000 feet AGL
Clouds: few clouds at 3800 feet AGL
scattered clouds at 5500 feet AGL
Weather: no significant weather observed at this time

METAR text: NZAA 170230Z AUTO 27015KT 9999 VCSH FEW040/// SCT060/// 14/10 Q1016 TEMPO 7000 SHRA
Conditions at: NZAA (AUCKLAND INTL AR, NZ) observed 0230 UTC 17 June 2019
Temperature: 14.0°C (57°F)
Dewpoint: 10.0°C (50°F) [RH = 77%]
Pressure (altimeter): 30.00 inches Hg (1016.0 mb)
Winds: from the W (270 degrees) at 17 MPH (15 knots; 7.7 m/s)
Visibility: 6 or more miles (10+ km)
Ceiling: at least 12,000 feet AGL
Clouds: few clouds at 4000 feet AGL
scattered clouds at 6000 feet AGL
Weather: VCSH  (showers in vicinity)

METAR text: NZAA 170200Z AUTO 25015KT 9999 VCSH FEW034/// 15/09 Q1016 TEMPO 7000 SHRA
Conditions at: NZAA (AUCKLAND INTL AR, NZ) observed 0200 UTC 17 June 2019
Temperature: 15.0°C (59°F)
Dewpoint: 9.0°C (48°F) [RH = 67%]
Pressure (altimeter): 30.00 inches Hg (1016.0 mb)
Winds: from the WSW (250 degrees) at 17 MPH (15 knots; 7.7 m/s)
Visibility: 6 or more miles (10+ km)
Ceiling: at least 12,000 feet AGL
Clouds: few clouds at 3400 feet AGL
Weather: VCSH  (showers in vicinity)

METAR text: NZAA 170130Z AUTO 24013KT 9999 VCSH FEW035/// 14/09 Q1016 TEMPO 7000 SHRA
Conditions at: NZAA (AUCKLAND INTL AR, NZ) observed 0130 UTC 17 June 2019
Temperature: 14.0°C (57°F)
Dewpoint: 9.0°C (48°F) [RH = 72%]
Pressure (altimeter): 30.00 inches Hg (1016.0 mb)
Winds: from the WSW (240 degrees) at 15 MPH (13 knots; 6.7 m/s)
Visibility: 6 or more miles (10+ km)
Ceiling: at least 12,000 feet AGL
Clouds: few clouds at 3500 feet AGL
Weather: VCSH  (showers in vicinity)

METAR text: NZAA 170100Z AUTO 23015KT 9999 -RA FEW014/// SCT047/// 13/10 Q1016 TEMPO 7000 SHRA
Conditions at: NZAA (AUCKLAND INTL AR, NZ) observed 0100 UTC 17 June 2019
Temperature: 13.0°C (55°F)
Dewpoint: 10.0°C (50°F) [RH = 82%]
Pressure (altimeter): 30.00 inches Hg (1016.0 mb)
Winds: from the SW (230 degrees) at 17 MPH (15 knots; 7.7 m/s)
Visibility: 6 or more miles (10+ km)
Ceiling: at least 12,000 feet AGL
Clouds: few clouds at 1400 feet AGL
scattered clouds at 4700 feet AGL
Weather: -RA  (light rain)

METAR text: NZAA 170030Z AUTO 25017KT 9999 -SHRA FEW043/// SCT050/// BKN075/// 14/10 Q1017 TEMPO 7000 SHRA
Conditions at: NZAA (AUCKLAND INTL AR, NZ) observed 0030 UTC 17 June 2019
Temperature: 14.0°C (57°F)
Dewpoint: 10.0°C (50°F) [RH = 77%]
Pressure (altimeter): 30.03 inches Hg (1017.0 mb)
Winds: from the WSW (250 degrees) at 20 MPH (17 knots; 8.7 m/s)
Visibility: 6 or more miles (10+ km)
Ceiling: 7500 feet AGL
Clouds: few clouds at 4300 feet AGL
scattered clouds at 5000 feet AGL
broken clouds at 7500 feet AGL
Weather: -SHRA  (light rain showers)

METAR text: NZAA 170000Z AUTO 25013KT 9999 FEW070/// 15/09 Q1017 TEMPO 7000 SHRA
Conditions at: NZAA (AUCKLAND INTL AR, NZ) observed 0000 UTC 17 June 2019
Temperature: 15.0°C (59°F)
Dewpoint: 9.0°C (48°F) [RH = 67%]
Pressure (altimeter): 30.03 inches Hg (1017.0 mb)
Winds: from the WSW (250 degrees) at 15 MPH (13 knots; 6.7 m/s)
Visibility: 6 or more miles (10+ km)
Ceiling: at least 12,000 feet AGL
Clouds: few clouds at 7000 feet AGL
Weather: no significant weather observed at this time

METAR text: NZAA 162330Z AUTO 25015KT 9999 -RA FEW038/// SCT060/// BKN085/// 14/09 Q1017 TEMPO 7000 SHRA
Conditions at: NZAA (AUCKLAND INTL AR, NZ) observed 2330 UTC 16 June 2019
Temperature: 14.0°C (57°F)
Dewpoint: 9.0°C (48°F) [RH = 72%]
Pressure (altimeter): 30.03 inches Hg (1017.0 mb)
Winds: from the WSW (250 degrees) at 17 MPH (15 knots; 7.7 m/s)
Visibility: 6 or more miles (10+ km)
Ceiling: 8500 feet AGL
Clouds: few clouds at 3800 feet AGL
scattered clouds at 6000 feet AGL
broken clouds at 8500 feet AGL
Weather: -RA  (light rain)

METAR text: NZAA 162300Z AUTO 25016KT 9999 VCSH SCT060/// 14/09 Q1018 TEMPO 7000 SHRA
Conditions at: NZAA (AUCKLAND INTL AR, NZ) observed 2300 UTC 16 June 2019
Temperature: 14.0°C (57°F)
Dewpoint: 9.0°C (48°F) [RH = 72%]
Pressure (altimeter): 30.06 inches Hg (1018.0 mb)
Winds: from the WSW (250 degrees) at 18 MPH (16 knots; 8.2 m/s)
Visibility: 6 or more miles (10+ km)
Ceiling: at least 12,000 feet AGL
Clouds: scattered clouds at 6000 feet AGL
Weather: VCSH  (showers in vicinity)

METAR text: NZAA 162230Z AUTO 24010KT 9999 -SHRA FEW028/// SCT065/// 14/10 Q1018 TEMPO 7000 SHRA
Conditions at: NZAA (AUCKLAND INTL AR, NZ) observed 2230 UTC 16 June 2019
Temperature: 14.0°C (57°F)
Dewpoint: 10.0°C (50°F) [RH = 77%]
Pressure (altimeter): 30.06 inches Hg (1018.0 mb)
Winds: from the WSW (240 degrees) at 12 MPH (10 knots; 5.1 m/s)
Visibility: 6 or more miles (10+ km)
Ceiling: at least 12,000 feet AGL
Clouds: few clouds at 2800 feet AGL
scattered clouds at 6500 feet AGL
Weather: -SHRA  (light rain showers)

METAR text: NZAA 162200Z AUTO 25014KT 9999 -RA FEW034/// BKN075/// 13/09 Q1017 RERA TEMPO 6000 SHRA
Conditions at: NZAA (AUCKLAND INTL AR, NZ) observed 2200 UTC 16 June 2019
Temperature: 13.0°C (55°F)
Dewpoint: 9.0°C (48°F) [RH = 77%]
Pressure (altimeter): 30.03 inches Hg (1017.0 mb)
Winds: from the WSW (250 degrees) at 16 MPH (14 knots; 7.2 m/s)
Visibility: 6 or more miles (10+ km)
Ceiling: 7500 feet AGL
Clouds: few clouds at 3400 feet AGL
broken clouds at 7500 feet AGL
Weather: -RA  (light rain)

METAR text: NZAA 162130Z AUTO 26013KT 9999 VCSH FEW047/// SCT060/// 13/08 Q1017 TEMPO 6000 SHRA
Conditions at: NZAA (AUCKLAND INTL AR, NZ) observed 2130 UTC 16 June 2019
Temperature: 13.0°C (55°F)
Dewpoint: 8.0°C (46°F) [RH = 72%]
Pressure (altimeter): 30.03 inches Hg (1017.0 mb)
Winds: from the W (260 degrees) at 15 MPH (13 knots; 6.7 m/s)
Visibility: 6 or more miles (10+ km)
Ceiling: at least 12,000 feet AGL
Clouds: few clouds at 4700 feet AGL
scattered clouds at 6000 feet AGL
Weather: VCSH  (showers in vicinity)

METAR text: NZAA 162100Z AUTO 26010KT 9999 NCD 13/09 Q1017 TEMPO 7000 SHRA
Conditions at: NZAA (AUCKLAND INTL AR, NZ) observed 2100 UTC 16 June 2019
Temperature: 13.0°C (55°F)
Dewpoint: 9.0°C (48°F) [RH = 77%]
Pressure (altimeter): 30.03 inches Hg (1017.0 mb)
Winds: from the W (260 degrees) at 12 MPH (10 knots; 5.1 m/s)
Visibility: 6 or more miles (10+ km)
Ceiling: at least 12,000 feet AGL
Clouds: sky clear below 12,000 feet AGL
Weather: no significant weather observed at this time

METAR text: NZAA 162030Z AUTO 25014KT 9999 -SHRA SCT050/// BKN080/// 12/08 Q1017 NOSIG
Conditions at: NZAA (AUCKLAND INTL AR, NZ) observed 2030 UTC 16 June 2019
Temperature: 12.0°C (54°F)
Dewpoint: 8.0°C (46°F) [RH = 76%]
Pressure (altimeter): 30.03 inches Hg (1017.0 mb)
Winds: from the WSW (250 degrees) at 16 MPH (14 knots; 7.2 m/s)
Visibility: 6 or more miles (10+ km)
Ceiling: 8000 feet AGL
Clouds: scattered clouds at 5000 feet AGL
broken clouds at 8000 feet AGL
Weather: -SHRA  (light rain showers)

METAR text: NZAA 162000Z AUTO 25011KT 9999 NCD 12/08 Q1017 TEMPO 6000 SHRA
Conditions at: NZAA (AUCKLAND INTL AR, NZ) observed 2000 UTC 16 June 2019
Temperature: 12.0°C (54°F)
Dewpoint: 8.0°C (46°F) [RH = 76%]
Pressure (altimeter): 30.03 inches Hg (1017.0 mb)
Winds: from the WSW (250 degrees) at 13 MPH (11 knots; 5.7 m/s)
Visibility: 6 or more miles (10+ km)
Ceiling: at least 12,000 feet AGL
Clouds: sky clear below 12,000 feet AGL
Weather: no significant weather observed at this time

METAR text: NZAA 161930Z AUTO 25011KT 9999 NCD 12/08 Q1016 TEMPO FM2000Z 6000 SHRA
Conditions at: NZAA (AUCKLAND INTL AR, NZ) observed 1930 UTC 16 June 2019
Temperature: 12.0°C (54°F)
Dewpoint: 8.0°C (46°F) [RH = 76%]
Pressure (altimeter): 30.00 inches Hg (1016.0 mb)
Winds: from the WSW (250 degrees) at 13 MPH (11 knots; 5.7 m/s)
Visibility: 6 or more miles (10+ km)
Ceiling: at least 12,000 feet AGL
Clouds: sky clear below 12,000 feet AGL
Weather: no significant weather observed at this time

METAR text: NZAA 161900Z AUTO 25011KT 9999 NCD 12/07 Q1016 TEMPO FM2000Z 6000 SHRA
Conditions at: NZAA (AUCKLAND INTL AR, NZ) observed 1900 UTC 16 June 2019
Temperature: 12.0°C (54°F)
Dewpoint: 7.0°C (45°F) [RH = 71%]
Pressure (altimeter): 30.00 inches Hg (1016.0 mb)
Winds: from the WSW (250 degrees) at 13 MPH (11 knots; 5.7 m/s)
Visibility: 6 or more miles (10+ km)
Ceiling: at least 12,000 feet AGL
Clouds: sky clear below 12,000 feet AGL
Weather: no significant weather observed at this time

METAR text: NZAA 161830Z AUTO 25010KT 9999 -SHRA SCT036/// BKN050/// BKN060/// 11/09 Q1016 NOSIG
Conditions at: NZAA (AUCKLAND INTL AR, NZ) observed 1830 UTC 16 June 2019
Temperature: 11.0°C (52°F)
Dewpoint: 9.0°C (48°F) [RH = 87%]
Pressure (altimeter): 30.00 inches Hg (1016.0 mb)
Winds: from the WSW (250 degrees) at 12 MPH (10 knots; 5.1 m/s)
Visibility: 6 or more miles (10+ km)
Ceiling: 5000 feet AGL
Clouds: scattered clouds at 3600 feet AGL
broken clouds at 5000 feet AGL
broken clouds at 6000 feet AGL
Weather: -SHRA  (light rain showers)

METAR text: NZAA 161800Z AUTO 24010KT 9999 FEW065/// 12/08 Q1016 TEMPO 7000 SHRA
Conditions at: NZAA (AUCKLAND INTL AR, NZ) observed 1800 UTC 16 June 2019
Temperature: 12.0°C (54°F)
Dewpoint: 8.0°C (46°F) [RH = 76%]
Pressure (altimeter): 30.00 inches Hg (1016.0 mb)
Winds: from the WSW (240 degrees) at 12 MPH (10 knots; 5.1 m/s)
Visibility: 6 or more miles (10+ km)
Ceiling: at least 12,000 feet AGL
Clouds: few clouds at 6500 feet AGL
Weather: no significant weather observed at this time

METAR text: NZAA 161730Z AUTO 25010KT 9999 DZ SCT037/// BKN060/// 12/08 Q1016 TEMPO 7000 SHRA
Conditions at: NZAA (AUCKLAND INTL AR, NZ) observed 1730 UTC 16 June 2019
Temperature: 12.0°C (54°F)
Dewpoint: 8.0°C (46°F) [RH = 76%]
Pressure (altimeter): 30.00 inches Hg (1016.0 mb)
Winds: from the WSW (250 degrees) at 12 MPH (10 knots; 5.1 m/s)
Visibility: 6 or more miles (10+ km)
Ceiling: 6000 feet AGL
Clouds: scattered clouds at 3700 feet AGL
broken clouds at 6000 feet AGL
Weather: DZ  (moderate drizzle)

METAR text: NZAA 161700Z AUTO 25010KT 9999 FEW038/// SCT048/// 12/08 Q1016 TEMPO 7000 SHRA
Conditions at: NZAA (AUCKLAND INTL AR, NZ) observed 1700 UTC 16 June 2019
Temperature: 12.0°C (54°F)
Dewpoint: 8.0°C (46°F) [RH = 76%]
Pressure (altimeter): 30.00 inches Hg (1016.0 mb)
Winds: from the WSW (250 degrees) at 12 MPH (10 knots; 5.1 m/s)
Visibility: 6 or more miles (10+ km)
Ceiling: at least 12,000 feet AGL
Clouds: few clouds at 3800 feet AGL
scattered clouds at 4800 feet AGL
Weather: no significant weather observed at this time

METAR text: NZAA 161630Z AUTO 26009KT 9999 FEW039/// SCT065/// 12/08 Q1016 TEMPO 7000 SHRA
Conditions at: NZAA (AUCKLAND INTL AR, NZ) observed 1630 UTC 16 June 2019
Temperature: 12.0°C (54°F)
Dewpoint: 8.0°C (46°F) [RH = 76%]
Pressure (altimeter): 30.00 inches Hg (1016.0 mb)
Winds: from the W (260 degrees) at 10 MPH (9 knots; 4.6 m/s)
Visibility: 6 or more miles (10+ km)
Ceiling: at least 12,000 feet AGL
Clouds: few clouds at 3900 feet AGL
scattered clouds at 6500 feet AGL
Weather: no significant weather observed at this time

METAR text: NZAA 161600Z AUTO 25008KT 9999 FEW070/// 12/08 Q1016 TEMPO 7000 SHRA
Conditions at: NZAA (AUCKLAND INTL AR, NZ) observed 1600 UTC 16 June 2019
Temperature: 12.0°C (54°F)
Dewpoint: 8.0°C (46°F) [RH = 76%]
Pressure (altimeter): 30.00 inches Hg (1016.0 mb)
Winds: from the WSW (250 degrees) at 9 MPH (8 knots; 4.1 m/s)
Visibility: 6 or more miles (10+ km)
Ceiling: at least 12,000 feet AGL
Clouds: few clouds at 7000 feet AGL
Weather: no significant weather observed at this time

METAR text: NZAA 161530Z AUTO 24010KT 9999 FEW065/// 12/08 Q1016 TEMPO 7000 SHRA
Conditions at: NZAA (AUCKLAND INTL AR, NZ) observed 1530 UTC 16 June 2019
Temperature: 12.0°C (54°F)
Dewpoint: 8.0°C (46°F) [RH = 76%]
Pressure (altimeter): 30.00 inches Hg (1016.0 mb)
Winds: from the WSW (240 degrees) at 12 MPH (10 knots; 5.1 m/s)
Visibility: 6 or more miles (10+ km)
Ceiling: at least 12,000 feet AGL
Clouds: few clouds at 6500 feet AGL
Weather: no significant weather observed at this time

METAR text: NZAA 161500Z AUTO 24012KT 9999 -RA FEW050/// BKN060/// 13/09 Q1016 TEMPO 7000 SHRA
Conditions at: NZAA (AUCKLAND INTL AR, NZ) observed 1500 UTC 16 June 2019
Temperature: 13.0°C (55°F)
Dewpoint: 9.0°C (48°F) [RH = 77%]
Pressure (altimeter): 30.00 inches Hg (1016.0 mb)
Winds: from the WSW (240 degrees) at 14 MPH (12 knots; 6.2 m/s)
Visibility: 6 or more miles (10+ km)
Ceiling: 6000 feet AGL
Clouds: few clouds at 5000 feet AGL
broken clouds at 6000 feet AGL
Weather: -RA  (light rain)

METAR text: NZAA 161430Z AUTO 24012KT 9999 SCT060/// SCT070/// 13/09 Q1016 TEMPO 7000 SHRA
Conditions at: NZAA (AUCKLAND INTL AR, NZ) observed 1430 UTC 16 June 2019
Temperature: 13.0°C (55°F)
Dewpoint: 9.0°C (48°F) [RH = 77%]
Pressure (altimeter): 30.00 inches Hg (1016.0 mb)
Winds: from the WSW (240 degrees) at 14 MPH (12 knots; 6.2 m/s)
Visibility: 6 or more miles (10+ km)
Ceiling: at least 12,000 feet AGL
Clouds: scattered clouds at 6000 feet AGL
scattered clouds at 7000 feet AGL
Weather: no significant weather observed at this time

METAR text: NZAA 161400Z AUTO 25010KT 9999 NCD 13/09 Q1016 TEMPO 7000 SHRA
Conditions at: NZAA (AUCKLAND INTL AR, NZ) observed 1400 UTC 16 June 2019
Temperature: 13.0°C (55°F)
Dewpoint: 9.0°C (48°F) [RH = 77%]
Pressure (altimeter): 30.00 inches Hg (1016.0 mb)
Winds: from the WSW (250 degrees) at 12 MPH (10 knots; 5.1 m/s)
Visibility: 6 or more miles (10+ km)
Ceiling: at least 12,000 feet AGL
Clouds: sky clear below 12,000 feet AGL
Weather: no significant weather observed at this time

METAR text: NZAA 161330Z AUTO 27009KT 9999 FEW040/// SCT049/// 12/10 Q1016 TEMPO 7000 SHRA
Conditions at: NZAA (AUCKLAND INTL AR, NZ) observed 1330 UTC 16 June 2019
Temperature: 12.0°C (54°F)
Dewpoint: 10.0°C (50°F) [RH = 88%]
Pressure (altimeter): 30.00 inches Hg (1016.0 mb)
Winds: from the W (270 degrees) at 10 MPH (9 knots; 4.6 m/s)
Visibility: 6 or more miles (10+ km)
Ceiling: at least 12,000 feet AGL
Clouds: few clouds at 4000 feet AGL
scattered clouds at 4900 feet AGL
Weather: no significant weather observed at this time

METAR text: NZAA 161300Z AUTO 25012KT 9999 FEW075/// 13/09 Q1016 TEMPO 7000 SHRA
Conditions at: NZAA (AUCKLAND INTL AR, NZ) observed 1300 UTC 16 June 2019
Temperature: 13.0°C (55°F)
Dewpoint: 9.0°C (48°F) [RH = 77%]
Pressure (altimeter): 30.00 inches Hg (1016.0 mb)
Winds: from the WSW (250 degrees) at 14 MPH (12 knots; 6.2 m/s)
Visibility: 6 or more miles (10+ km)
Ceiling: at least 12,000 feet AGL
Clouds: few clouds at 7500 feet AGL
Weather: no significant weather observed at this time

METAR text: NZAA 161230Z AUTO 24012KT 9999 FEW060/// 13/09 Q1016 TEMPO 7000 SHRA
Conditions at: NZAA (AUCKLAND INTL AR, NZ) observed 1230 UTC 16 June 2019
Temperature: 13.0°C (55°F)
Dewpoint: 9.0°C (48°F) [RH = 77%]
Pressure (altimeter): 30.00 inches Hg (1016.0 mb)
Winds: from the WSW (240 degrees) at 14 MPH (12 knots; 6.2 m/s)
Visibility: 6 or more miles (10+ km)
Ceiling: at least 12,000 feet AGL
Clouds: few clouds at 6000 feet AGL
Weather: no significant weather observed at this time

METAR text: NZAA 161200Z AUTO 25011KT 9999 FEW036/// SCT045/// BKN060/// 13/10 Q1016 TEMPO 7000 SHRA
Conditions at: NZAA (AUCKLAND INTL AR, NZ) observed 1200 UTC 16 June 2019
Temperature: 13.0°C (55°F)
Dewpoint: 10.0°C (50°F) [RH = 82%]
Pressure (altimeter): 30.00 inches Hg (1016.0 mb)
Winds: from the WSW (250 degrees) at 13 MPH (11 knots; 5.7 m/s)
Visibility: 6 or more miles (10+ km)
Ceiling: 6000 feet AGL
Clouds: few clouds at 3600 feet AGL
scattered clouds at 4500 feet AGL
broken clouds at 6000 feet AGL
Weather: no significant weather observed at this time

METAR text: NZAA 161130Z AUTO 25012KT 7000 RA SCT033/// SCT042/// BKN049/// 12/10 Q1016 BECMG 9999 -SHRA TEMPO 7000 SHRA
Conditions at: NZAA (AUCKLAND INTL AR, NZ) observed 1130 UTC 16 June 2019
Temperature: 12.0°C (54°F)
Dewpoint: 10.0°C (50°F) [RH = 88%]
Pressure (altimeter): 30.00 inches Hg (1016.0 mb)
Winds: from the WSW (250 degrees) at 14 MPH (12 knots; 6.2 m/s)
Visibility: 4 miles ( 7 km)
Ceiling: 4900 feet AGL
Clouds: scattered clouds at 3300 feet AGL
scattered clouds at 4200 feet AGL
broken clouds at 4900 feet AGL
Weather: RA  (moderate rain)

METAR text: NZAA 161100Z AUTO 26011KT 9999 -RA FEW032/// SCT060/// BKN070/// 12/10 Q1016 TEMPO 7000 SHRA
Conditions at: NZAA (AUCKLAND INTL AR, NZ) observed 1100 UTC 16 June 2019
Temperature: 12.0°C (54°F)
Dewpoint: 10.0°C (50°F) [RH = 88%]
Pressure (altimeter): 30.00 inches Hg (1016.0 mb)
Winds: from the W (260 degrees) at 13 MPH (11 knots; 5.7 m/s)
Visibility: 6 or more miles (10+ km)
Ceiling: 7000 feet AGL
Clouds: few clouds at 3200 feet AGL
scattered clouds at 6000 feet AGL
broken clouds at 7000 feet AGL
Weather: -RA  (light rain)

METAR text: NZAA 161030Z AUTO 24011KT 9999 FEW050/// 13/09 Q1016 TEMPO 7000 SHRA
Conditions at: NZAA (AUCKLAND INTL AR, NZ) observed 1030 UTC 16 June 2019
Temperature: 13.0°C (55°F)
Dewpoint: 9.0°C (48°F) [RH = 77%]
Pressure (altimeter): 30.00 inches Hg (1016.0 mb)
Winds: from the WSW (240 degrees) at 13 MPH (11 knots; 5.7 m/s)
Visibility: 6 or more miles (10+ km)
Ceiling: at least 12,000 feet AGL
Clouds: few clouds at 5000 feet AGL
Weather: no significant weather observed at this time

METAR text: NZAA 161000Z AUTO 25011KT 9999 SCT060/// BKN070/// 13/10 Q1016 TEMPO 7000 SHRA
Conditions at: NZAA (AUCKLAND INTL AR, NZ) observed 1000 UTC 16 June 2019
Temperature: 13.0°C (55°F)
Dewpoint: 10.0°C (50°F) [RH = 82%]
Pressure (altimeter): 30.00 inches Hg (1016.0 mb)
Winds: from the WSW (250 degrees) at 13 MPH (11 knots; 5.7 m/s)
Visibility: 6 or more miles (10+ km)
Ceiling: 7000 feet AGL
Clouds: scattered clouds at 6000 feet AGL
broken clouds at 7000 feet AGL
Weather: no significant weather observed at this time

METAR text: NZAA 160930Z AUTO 25012KT 9999 -RA FEW027/// SCT041/// BKN050/// 13/11 Q1015 TEMPO 6000 SHRA
Conditions at: NZAA (AUCKLAND INTL AR, NZ) observed 0930 UTC 16 June 2019
Temperature: 13.0°C (55°F)
Dewpoint: 11.0°C (52°F) [RH = 88%]
Pressure (altimeter): 29.97 inches Hg (1015.0 mb)
Winds: from the WSW (250 degrees) at 14 MPH (12 knots; 6.2 m/s)
Visibility: 6 or more miles (10+ km)
Ceiling: 5000 feet AGL
Clouds: few clouds at 2700 feet AGL
scattered clouds at 4100 feet AGL
broken clouds at 5000 feet AGL
Weather: -RA  (light rain)

METAR text: NZAA 160900Z AUTO 26011KT 9999 FEW050/// SCT060/// 12/10 Q1015 TEMPO 6000 SHRA
Conditions at: NZAA (AUCKLAND INTL AR, NZ) observed 0900 UTC 16 June 2019
Temperature: 12.0°C (54°F)
Dewpoint: 10.0°C (50°F) [RH = 88%]
Pressure (altimeter): 29.97 inches Hg (1015.0 mb)
Winds: from the W (260 degrees) at 13 MPH (11 knots; 5.7 m/s)
Visibility: 6 or more miles (10+ km)
Ceiling: at least 12,000 feet AGL
Clouds: few clouds at 5000 feet AGL
scattered clouds at 6000 feet AGL
Weather: no significant weather observed at this time

Forecast for: NZAA (AUCKLAND INTL AR, NZ)
Text: TAF NZAA 171705Z 1718/1818 19008KT 9999 -SHRA SCT030
Forecast period: 1800 UTC 17 June 2019 to 1800 UTC 18 June 2019
Forecast type: FROM: standard forecast or significant change
Winds: from the S (190 degrees) at 9 MPH (8 knots; 4.1 m/s)
Visibility: 6 or more miles 10+ km)
Ceiling: at least 12,000 feet AGL
Clouds: scattered clouds at 3000 feet AGL
Weather: -SHRA  (light rain showers)